sensor_id;sensor_type;location;lat;lon;timestamp;pressure;altitude;pressure_sealevel;temperature;humidity
12178;BME280;6152;48.728;9.256;2023-07-13T00:01:53;97017.25;;;20.00;85.40
12178;BME280;6152;48.728;9.256;2023-07-13T00:04:22;97033.81;;;20.02;85.02
12178;BME280;6152;48.728;9.256;2023-07-13T00:06:50;97025.19;;;20.00;84.26
12178;BME280;6152;48.728;9.256;2023-07-13T00:09:17;97034.56;;;19.94;85.02
12178;BME280;6152;48.728;9.256;2023-07-13T00:11:44;97036.69;;;19.91;84.85
12178;BME280;6152;48.728;9.256;2023-07-13T00:14:13;97035.63;;;19.84;85.11
12178;BME280;6152;48.728;9.256;2023-07-13T00:16:41;97035.94;;;19.81;84.66
12178;BME280;6152;48.728;9.256;2023-07-13T00:19:11;97032.63;;;19.79;83.57
12178;BME280;6152;48.728;9.256;2023-07-13T00:21:39;97033.44;;;19.79;82.91
12178;BME280;6152;48.728;9.256;2023-07-13T00:24:07;97028.25;;;19.70;83.85
12178;BME280;6152;48.728;9.256;2023-07-13T00:26:33;97028.84;;;19.63;84.68
12178;BME280;6152;48.728;9.256;2023-07-13T00:28:59;97033.81;;;19.66;84.09
12178;BME280;6152;48.728;9.256;2023-07-13T00:31:26;97037.75;;;19.62;84.25
12178;BME280;6152;48.728;9.256;2023-07-13T00:33:52;97040.59;;;19.51;85.75
12178;BME280;6152;48.728;9.256;2023-07-13T00:36:21;97046.47;;;19.45;86.72
12178;BME280;6152;48.728;9.256;2023-07-13T00:38:47;97041.78;;;19.39;87.52
12178;BME280;6152;48.728;9.256;2023-07-13T00:41:14;97044.31;;;19.31;88.65
12178;BME280;6152;48.728;9.256;2023-07-13T00:43:41;97047.41;;;19.27;90.40
12178;BME280;6152;48.728;9.256;2023-07-13T00:46:18;97050.78;;;19.19;91.16
12178;BME280;6152;48.728;9.256;2023-07-13T00:48:47;97047.75;;;19.14;90.89
12178;BME280;6152;48.728;9.256;2023-07-13T00:51:16;97059.88;;;19.07;92.57
12178;BME280;6152;48.728;9.256;2023-07-13T00:53:43;97058.53;;;19.03;93.68
12178;BME280;6152;48.728;9.256;2023-07-13T00:56:10;97065.19;;;18.97;93.84
12178;BME280;6152;48.728;9.256;2023-07-13T00:58:36;97063.97;;;18.92;94.58
12178;BME280;6152;48.728;9.256;2023-07-13T01:01:03;97061.94;;;18.86;95.13
12178;BME280;6152;48.728;9.256;2023-07-13T01:03:29;97062.34;;;18.81;95.35
12178;BME280;6152;48.728;9.256;2023-07-13T01:05:55;97062.09;;;18.75;96.39
12178;BME280;6152;48.728;9.256;2023-07-13T01:08:22;97060.72;;;18.71;97.71
12178;BME280;6152;48.728;9.256;2023-07-13T01:10:56;97061.03;;;18.67;97.56
12178;BME280;6152;48.728;9.256;2023-07-13T01:13:22;97067.56;;;18.63;97.42
12178;BME280;6152;48.728;9.256;2023-07-13T01:15:50;97063.81;;;18.56;97.93
12178;BME280;6152;48.728;9.256;2023-07-13T01:18:22;97054.41;;;18.54;98.54
12178;BME280;6152;48.728;9.256;2023-07-13T01:21:16;97059.97;;;18.51;99.11
12178;BME280;6152;48.728;9.256;2023-07-13T01:23:43;97062.69;;;18.49;99.97
12178;BME280;6152;48.728;9.256;2023-07-13T01:26:10;97064.66;;;18.47;100.00
12178;BME280;6152;48.728;9.256;2023-07-13T01:28:37;97065.75;;;18.45;100.00
12178;BME280;6152;48.728;9.256;2023-07-13T01:31:04;97068.13;;;18.48;100.00
12178;BME280;6152;48.728;9.256;2023-07-13T01:33:30;97071.56;;;18.48;100.00
12178;BME280;6152;48.728;9.256;2023-07-13T01:35:56;97070.22;;;18.44;100.00
12178;BME280;6152;48.728;9.256;2023-07-13T01:38:26;97065.50;;;18.38;100.00
12178;BME280;6152;48.728;9.256;2023-07-13T01:40:53;97066.91;;;18.33;100.00
12178;BME280;6152;48.728;9.256;2023-07-13T01:43:19;97069.97;;;18.28;100.00
12178;BME280;6152;48.728;9.256;2023-07-13T01:45:45;97069.56;;;18.23;100.00
12178;BME280;6152;48.728;9.256;2023-07-13T01:48:12;97066.50;;;18.18;100.00
12178;BME280;6152;48.728;9.256;2023-07-13T01:50:39;97072.19;;;18.13;100.00
12178;BME280;6152;48.728;9.256;2023-07-13T01:53:05;97065.56;;;18.09;100.00
12178;BME280;6152;48.728;9.256;2023-07-13T01:55:33;97071.91;;;18.07;100.00
12178;BME280;6152;48.728;9.256;2023-07-13T01:57:59;97067.22;;;18.01;100.00
12178;BME280;6152;48.728;9.256;2023-07-13T02:00:25;97070.81;;;18.00;100.00
12178;BME280;6152;48.728;9.256;2023-07-13T02:02:51;97066.81;;;17.96;100.00
12178;BME280;6152;48.728;9.256;2023-07-13T02:05:18;97075.25;;;17.90;100.00
12178;BME280;6152;48.728;9.256;2023-07-13T02:07:44;97070.56;;;17.84;100.00
12178;BME280;6152;48.728;9.256;2023-07-13T02:10:11;97074.44;;;17.80;100.00
12178;BME280;6152;48.728;9.256;2023-07-13T02:12:38;97076.66;;;17.75;100.00
12178;BME280;6152;48.728;9.256;2023-07-13T02:15:05;97076.94;;;17.72;100.00
12178;BME280;6152;48.728;9.256;2023-07-13T02:17:32;97079.97;;;17.67;100.00
12178;BME280;6152;48.728;9.256;2023-07-13T02:19:58;97081.38;;;17.61;100.00
12178;BME280;6152;48.728;9.256;2023-07-13T02:22:24;97086.19;;;17.56;100.00
12178;BME280;6152;48.728;9.256;2023-07-13T02:24:50;97084.91;;;17.51;100.00
12178;BME280;6152;48.728;9.256;2023-07-13T02:27:17;97081.72;;;17.47;100.00
12178;BME280;6152;48.728;9.256;2023-07-13T02:29:43;97084.63;;;17.44;100.00
12178;BME280;6152;48.728;9.256;2023-07-13T02:32:09;97086.81;;;17.39;100.00
12178;BME280;6152;48.728;9.256;2023-07-13T02:34:35;97087.09;;;17.36;100.00
12178;BME280;6152;48.728;9.256;2023-07-13T02:37:01;97094.28;;;17.34;100.00
12178;BME280;6152;48.728;9.256;2023-07-13T02:39:27;97084.03;;;17.31;100.00
12178;BME280;6152;48.728;9.256;2023-07-13T02:41:53;97096.63;;;17.28;100.00
12178;BME280;6152;48.728;9.256;2023-07-13T02:44:20;97089.72;;;17.27;100.00
12178;BME280;6152;48.728;9.256;2023-07-13T02:46:46;97089.28;;;17.22;100.00
12178;BME280;6152;48.728;9.256;2023-07-13T02:49:12;97092.84;;;17.21;100.00
12178;BME280;6152;48.728;9.256;2023-07-13T02:51:38;97096.59;;;17.18;100.00
12178;BME280;6152;48.728;9.256;2023-07-13T02:54:05;97096.88;;;17.15;100.00
12178;BME280;6152;48.728;9.256;2023-07-13T02:56:32;97096.19;;;17.13;100.00
12178;BME280;6152;48.728;9.256;2023-07-13T02:58:58;97096.44;;;17.10;100.00
12178;BME280;6152;48.728;9.256;2023-07-13T03:01:25;97084.25;;;17.09;100.00
12178;BME280;6152;48.728;9.256;2023-07-13T03:03:51;97092.56;;;17.14;100.00
12178;BME280;6152;48.728;9.256;2023-07-13T03:06:18;97096.69;;;17.07;100.00
12178;BME280;6152;48.728;9.256;2023-07-13T03:08:45;97101.38;;;17.03;100.00
12178;BME280;6152;48.728;9.256;2023-07-13T03:11:14;97099.84;;;17.01;100.00
12178;BME280;6152;48.728;9.256;2023-07-13T03:13:42;97101.94;;;16.97;100.00
12178;BME280;6152;48.728;9.256;2023-07-13T03:16:09;97104.69;;;16.96;100.00
12178;BME280;6152;48.728;9.256;2023-07-13T03:18:36;97105.94;;;16.92;100.00
12178;BME280;6152;48.728;9.256;2023-07-13T03:21:03;97101.63;;;16.91;100.00
12178;BME280;6152;48.728;9.256;2023-07-13T03:23:30;97106.88;;;16.91;100.00
12178;BME280;6152;48.728;9.256;2023-07-13T03:26:09;97111.88;;;16.94;100.00
12178;BME280;6152;48.728;9.256;2023-07-13T03:28:35;97107.91;;;16.99;100.00
12178;BME280;6152;48.728;9.256;2023-07-13T03:31:04;97109.72;;;17.08;100.00
12178;BME280;6152;48.728;9.256;2023-07-13T03:33:31;97110.03;;;17.15;100.00
12178;BME280;6152;48.728;9.256;2023-07-13T03:35:57;97111.41;;;17.19;100.00
12178;BME280;6152;48.728;9.256;2023-07-13T03:38:23;97116.97;;;17.26;100.00
12178;BME280;6152;48.728;9.256;2023-07-13T03:40:49;97122.13;;;17.37;100.00
12178;BME280;6152;48.728;9.256;2023-07-13T03:43:16;97124.09;;;17.44;100.00
12178;BME280;6152;48.728;9.256;2023-07-13T03:45:42;97127.59;;;17.54;100.00
12178;BME280;6152;48.728;9.256;2023-07-13T03:48:08;97126.22;;;17.60;100.00
12178;BME280;6152;48.728;9.256;2023-07-13T03:50:34;97135.66;;;17.62;100.00
12178;BME280;6152;48.728;9.256;2023-07-13T03:53:00;97126.25;;;17.70;100.00
12178;BME280;6152;48.728;9.256;2023-07-13T03:55:26;97132.91;;;17.74;100.00
12178;BME280;6152;48.728;9.256;2023-07-13T03:57:59;97135.97;;;17.79;100.00
12178;BME280;6152;48.728;9.256;2023-07-13T04:00:25;97140.69;;;17.85;100.00
12178;BME280;6152;48.728;9.256;2023-07-13T04:02:51;97143.72;;;17.90;100.00
12178;BME280;6152;48.728;9.256;2023-07-13T04:05:18;97138.88;;;17.95;100.00
12178;BME280;6152;48.728;9.256;2023-07-13T04:07:44;97137.94;;;18.05;100.00
12178;BME280;6152;48.728;9.256;2023-07-13T04:10:10;97140.69;;;18.04;100.00
12178;BME280;6152;48.728;9.256;2023-07-13T04:12:36;97135.41;;;18.04;100.00
12178;BME280;6152;48.728;9.256;2023-07-13T04:15:03;97142.34;;;18.05;99.66
12178;BME280;6152;48.728;9.256;2023-07-13T04:17:29;97132.94;;;18.12;99.08
12178;BME280;6152;48.728;9.256;2023-07-13T04:19:55;97141.50;;;18.14;98.12
12178;BME280;6152;48.728;9.256;2023-07-13T04:22:21;97142.22;;;18.16;96.85
12178;BME280;6152;48.728;9.256;2023-07-13T04:24:47;97149.84;;;18.19;94.80
12178;BME280;6152;48.728;9.256;2023-07-13T04:27:13;97148.19;;;18.18;95.13
12178;BME280;6152;48.728;9.256;2023-07-13T04:29:39;97149.00;;;18.18;95.36
12178;BME280;6152;48.728;9.256;2023-07-13T04:32:06;97141.78;;;18.21;95.74
12178;BME280;6152;48.728;9.256;2023-07-13T04:34:32;97150.97;;;18.26;94.52
12178;BME280;6152;48.728;9.256;2023-07-13T04:36:59;97149.00;;;18.28;94.79
12178;BME280;6152;48.728;9.256;2023-07-13T04:39:25;97149.00;;;18.28;94.23
12178;BME280;6152;48.728;9.256;2023-07-13T04:41:51;97155.94;;;18.29;94.59
12178;BME280;6152;48.728;9.256;2023-07-13T04:44:17;97157.63;;;18.30;94.53
12178;BME280;6152;48.728;9.256;2023-07-13T04:46:43;97152.88;;;18.43;92.50
12178;BME280;6152;48.728;9.256;2023-07-13T04:49:09;97153.28;;;18.48;90.27
12178;BME280;6152;48.728;9.256;2023-07-13T04:51:35;97160.50;;;18.46;91.63
12178;BME280;6152;48.728;9.256;2023-07-13T04:54:01;97145.25;;;18.40;93.13
12178;BME280;6152;48.728;9.256;2023-07-13T04:56:27;97156.19;;;18.45;91.21
12178;BME280;6152;48.728;9.256;2023-07-13T04:58:54;97151.50;;;18.39;92.08
12178;BME280;6152;48.728;9.256;2023-07-13T05:01:20;97152.47;;;18.38;92.17
12178;BME280;6152;48.728;9.256;2023-07-13T05:03:46;97160.25;;;18.40;93.02
12178;BME280;6152;48.728;9.256;2023-07-13T05:06:12;97154.81;;;18.41;93.41
12178;BME280;6152;48.728;9.256;2023-07-13T05:08:39;97154.56;;;18.44;93.30
12178;BME280;6152;48.728;9.256;2023-07-13T05:11:06;97155.91;;;18.48;93.10
12178;BME280;6152;48.728;9.256;2023-07-13T05:13:33;97159.28;;;18.50;92.85
12178;BME280;6152;48.728;9.256;2023-07-13T05:16:01;97157.75;;;18.48;92.69
12178;BME280;6152;48.728;9.256;2023-07-13T05:18:28;97156.50;;;18.61;89.37
12178;BME280;6152;48.728;9.256;2023-07-13T05:20:58;97164.97;;;18.55;88.34
12178;BME280;6152;48.728;9.256;2023-07-13T05:23:25;97165.38;;;18.60;89.31
12178;BME280;6152;48.728;9.256;2023-07-13T05:25:51;97163.41;;;18.62;89.21
12178;BME280;6152;48.728;9.256;2023-07-13T05:28:17;97163.56;;;18.71;89.03
12178;BME280;6152;48.728;9.256;2023-07-13T05:30:48;97166.19;;;18.71;87.24
12178;BME280;6152;48.728;9.256;2023-07-13T05:33:14;97167.28;;;18.78;87.91
12178;BME280;6152;48.728;9.256;2023-07-13T05:35:40;97176.97;;;18.87;86.00
12178;BME280;6152;48.728;9.256;2023-07-13T05:38:06;97176.00;;;18.88;86.72
12178;BME280;6152;48.728;9.256;2023-07-13T05:40:33;97174.75;;;18.92;84.34
12178;BME280;6152;48.728;9.256;2023-07-13T05:42:59;97176.53;;;19.01;85.18
12178;BME280;6152;48.728;9.256;2023-07-13T05:45:25;97174.44;;;19.04;82.28
12178;BME280;6152;48.728;9.256;2023-07-13T05:47:51;97178.88;;;19.04;82.10
12178;BME280;6152;48.728;9.256;2023-07-13T05:50:18;97182.50;;;19.03;81.46
12178;BME280;6152;48.728;9.256;2023-07-13T05:52:44;97187.19;;;19.09;81.66
12178;BME280;6152;48.728;9.256;2023-07-13T05:55:10;97182.72;;;19.19;82.51
12178;BME280;6152;48.728;9.256;2023-07-13T05:57:36;97178.28;;;19.20;80.31
12178;BME280;6152;48.728;9.256;2023-07-13T06:00:03;97186.19;;;19.20;81.17
12178;BME280;6152;48.728;9.256;2023-07-13T06:02:29;97189.25;;;19.15;79.82
12178;BME280;6152;48.728;9.256;2023-07-13T06:04:55;97195.50;;;19.14;78.76
12178;BME280;6152;48.728;9.256;2023-07-13T06:07:21;97193.69;;;19.14;80.28
12178;BME280;6152;48.728;9.256;2023-07-13T06:09:47;97200.22;;;19.20;80.59
12178;BME280;6152;48.728;9.256;2023-07-13T06:12:13;97199.94;;;19.23;80.25
12178;BME280;6152;48.728;9.256;2023-07-13T06:14:39;97201.88;;;19.21;79.77
12178;BME280;6152;48.728;9.256;2023-07-13T06:17:06;97203.13;;;19.27;83.08
12178;BME280;6152;48.728;9.256;2023-07-13T06:19:32;97210.38;;;19.15;85.43
12178;BME280;6152;48.728;9.256;2023-07-13T06:21:58;97208.59;;;19.06;84.43
12178;BME280;6152;48.728;9.256;2023-07-13T06:24:25;97214.69;;;19.16;85.86
12178;BME280;6152;48.728;9.256;2023-07-13T06:26:51;97208.53;;;19.25;82.34
12178;BME280;6152;48.728;9.256;2023-07-13T06:29:17;97217.53;;;19.32;80.73
12178;BME280;6152;48.728;9.256;2023-07-13T06:31:43;97219.88;;;19.45;75.89
12178;BME280;6152;48.728;9.256;2023-07-13T06:34:09;97230.69;;;19.51;74.89
12178;BME280;6152;48.728;9.256;2023-07-13T06:36:35;97227.97;;;19.71;73.58
12178;BME280;6152;48.728;9.256;2023-07-13T06:39:02;97230.78;;;19.87;71.13
12178;BME280;6152;48.728;9.256;2023-07-13T06:41:28;97227.28;;;19.96;72.88
12178;BME280;6152;48.728;9.256;2023-07-13T06:43:54;97245.84;;;20.04;73.75
12178;BME280;6152;48.728;9.256;2023-07-13T06:46:24;97241.50;;;20.12;73.09
12178;BME280;6152;48.728;9.256;2023-07-13T06:48:50;97239.22;;;20.27;71.35
12178;BME280;6152;48.728;9.256;2023-07-13T06:51:16;97242.53;;;20.29;71.21
12178;BME280;6152;48.728;9.256;2023-07-13T06:53:42;97249.03;;;20.52;69.85
12178;BME280;6152;48.728;9.256;2023-07-13T06:56:10;97247.09;;;20.54;69.07
12178;BME280;6152;48.728;9.256;2023-07-13T06:58:37;97244.56;;;20.53;66.31
12178;BME280;6152;48.728;9.256;2023-07-13T07:01:04;97242.03;;;20.61;65.86
12178;BME280;6152;48.728;9.256;2023-07-13T07:03:30;97238.63;;;20.69;66.03
12178;BME280;6152;48.728;9.256;2023-07-13T07:06:12;97241.31;;;20.77;63.90
12178;BME280;6152;48.728;9.256;2023-07-13T07:08:40;97247.13;;;20.80;62.11
12178;BME280;6152;48.728;9.256;2023-07-13T07:11:08;97245.19;;;20.82;63.17
12178;BME280;6152;48.728;9.256;2023-07-13T07:13:34;97235.22;;;21.02;59.32
12178;BME280;6152;48.728;9.256;2023-07-13T07:16:00;97245.50;;;21.05;59.17
12178;BME280;6152;48.728;9.256;2023-07-13T07:18:26;97239.50;;;21.21;58.70
12178;BME280;6152;48.728;9.256;2023-07-13T07:20:53;97234.53;;;21.43;59.52
12178;BME280;6152;48.728;9.256;2023-07-13T07:23:19;97238.16;;;21.68;58.87
12178;BME280;6152;48.728;9.256;2023-07-13T07:25:45;97238.00;;;21.78;56.82
12178;BME280;6152;48.728;9.256;2023-07-13T07:28:15;97236.44;;;21.93;54.12
12178;BME280;6152;48.728;9.256;2023-07-13T07:30:47;97235.69;;;22.17;54.04
12178;BME280;6152;48.728;9.256;2023-07-13T07:33:14;97247.50;;;22.38;49.72
12178;BME280;6152;48.728;9.256;2023-07-13T07:35:40;97242.53;;;22.51;46.53
12178;BME280;6152;48.728;9.256;2023-07-13T07:38:06;97238.94;;;22.60;45.52
12178;BME280;6152;48.728;9.256;2023-07-13T07:40:37;97238.91;;;22.52;45.03
12178;BME280;6152;48.728;9.256;2023-07-13T07:43:04;97246.59;;;22.80;44.34
12178;BME280;6152;48.728;9.256;2023-07-13T07:45:30;97244.28;;;22.85;44.72
12178;BME280;6152;48.728;9.256;2023-07-13T07:47:56;97248.41;;;23.20;44.84
12178;BME280;6152;48.728;9.256;2023-07-13T07:50:25;97247.88;;;23.32;44.08
12178;BME280;6152;48.728;9.256;2023-07-13T07:52:51;97243.56;;;23.47;42.72
12178;BME280;6152;48.728;9.256;2023-07-13T07:55:17;97243.44;;;23.88;42.57
12178;BME280;6152;48.728;9.256;2023-07-13T07:57:43;97249.31;;;24.14;40.98
12178;BME280;6152;48.728;9.256;2023-07-13T08:00:10;97253.91;;;24.28;40.33
12178;BME280;6152;48.728;9.256;2023-07-13T08:02:36;97247.38;;;24.61;39.32
12178;BME280;6152;48.728;9.256;2023-07-13T08:05:03;97248.41;;;24.83;39.03
12178;BME280;6152;48.728;9.256;2023-07-13T08:07:31;97252.66;;;25.30;38.87
12178;BME280;6152;48.728;9.256;2023-07-13T08:09:58;97246.69;;;25.13;38.19
12178;BME280;6152;48.728;9.256;2023-07-13T08:12:24;97247.72;;;25.41;37.64
12178;BME280;6152;48.728;9.256;2023-07-13T08:14:50;97251.63;;;25.97;37.30
12178;BME280;6152;48.728;9.256;2023-07-13T08:17:20;97246.88;;;26.43;37.23
12178;BME280;6152;48.728;9.256;2023-07-13T08:19:46;97239.00;;;26.78;36.40
12178;BME280;6152;48.728;9.256;2023-07-13T08:22:12;97245.63;;;27.31;35.52
12178;BME280;6152;48.728;9.256;2023-07-13T08:24:38;97249.81;;;27.12;34.95
12178;BME280;6152;48.728;9.256;2023-07-13T08:27:05;97246.84;;;27.28;35.09
12178;BME280;6152;48.728;9.256;2023-07-13T08:29:31;97249.09;;;27.46;34.30
12178;BME280;6152;48.728;9.256;2023-07-13T08:32:00;97250.16;;;28.20;34.07
12178;BME280;6152;48.728;9.256;2023-07-13T08:34:26;97247.63;;;28.73;32.65
12178;BME280;6152;48.728;9.256;2023-07-13T08:36:52;97251.81;;;29.15;32.20
12178;BME280;6152;48.728;9.256;2023-07-13T08:39:18;97245.81;;;29.52;31.63
12178;BME280;6152;48.728;9.256;2023-07-13T08:41:47;97244.00;;;29.26;31.30
12178;BME280;6152;48.728;9.256;2023-07-13T08:44:40;97248.00;;;28.63;32.60
12178;BME280;6152;48.728;9.256;2023-07-13T08:47:11;97247.28;;;29.08;31.98
12178;BME280;6152;48.728;9.256;2023-07-13T08:49:38;97246.47;;;29.41;31.51
12178;BME280;6152;48.728;9.256;2023-07-13T08:54:41;97242.72;;;30.32;29.57
12178;BME280;6152;48.728;9.256;2023-07-13T08:57:19;97249.31;;;30.81;28.71
12178;BME280;6152;48.728;9.256;2023-07-13T08:59:46;97244.94;;;31.18;27.94
12178;BME280;6152;48.728;9.256;2023-07-13T09:05:33;97240.25;;;32.95;26.38
12178;BME280;6152;48.728;9.256;2023-07-13T09:10:46;97244.63;;;34.75;24.51
12178;BME280;6152;48.728;9.256;2023-07-13T09:15:52;97240.06;;;35.09;24.09
12178;BME280;6152;48.728;9.256;2023-07-13T09:21:08;97240.22;;;33.83;24.95
12178;BME280;6152;48.728;9.256;2023-07-13T09:23:36;97251.50;;;33.33;25.82
12178;BME280;6152;48.728;9.256;2023-07-13T09:26:21;97247.16;;;32.13;25.78
12178;BME280;6152;48.728;9.256;2023-07-13T09:28:57;97248.13;;;31.76;26.51
12178;BME280;6152;48.728;9.256;2023-07-13T09:31:34;97242.31;;;33.34;25.21
12178;BME280;6152;48.728;9.256;2023-07-13T09:34:04;97244.31;;;35.05;23.26
12178;BME280;6152;48.728;9.256;2023-07-13T09:36:35;97242.44;;;35.89;22.06
12178;BME280;6152;48.728;9.256;2023-07-13T09:42:12;97243.81;;;37.64;22.15
12178;BME280;6152;48.728;9.256;2023-07-13T09:47:19;97238.91;;;34.48;24.41
12178;BME280;6152;48.728;9.256;2023-07-13T09:49:45;97238.38;;;33.07;25.49
12178;BME280;6152;48.728;9.256;2023-07-13T09:52:14;97238.44;;;32.29;26.56
12178;BME280;6152;48.728;9.256;2023-07-13T09:54:46;97233.88;;;31.50;27.82
12178;BME280;6152;48.728;9.256;2023-07-13T09:57:17;97234.00;;;30.81;28.36
12178;BME280;6152;48.728;9.256;2023-07-13T09:59:46;97241.69;;;31.09;27.92
12178;BME280;6152;48.728;9.256;2023-07-13T10:02:25;97239.72;;;30.98;27.01
12178;BME280;6152;48.728;9.256;2023-07-13T10:05:00;97235.44;;;32.97;26.20
12178;BME280;6152;48.728;9.256;2023-07-13T10:07:27;97237.44;;;33.78;25.63
12178;BME280;6152;48.728;9.256;2023-07-13T10:09:54;97237.72;;;34.68;23.90
12178;BME280;6152;48.728;9.256;2023-07-13T10:12:22;97237.06;;;34.77;24.44
12178;BME280;6152;48.728;9.256;2023-07-13T10:14:55;97240.09;;;34.53;24.55
12178;BME280;6152;48.728;9.256;2023-07-13T10:17:29;97240.19;;;34.29;25.25
12178;BME280;6152;48.728;9.256;2023-07-13T10:20:00;97240.22;;;34.06;24.69
12178;BME280;6152;48.728;9.256;2023-07-13T10:22:48;97243.47;;;33.15;24.98
12178;BME280;6152;48.728;9.256;2023-07-13T10:25:23;97240.69;;;32.32;25.91
12178;BME280;6152;48.728;9.256;2023-07-13T10:27:53;97239.66;;;31.79;26.83
12178;BME280;6152;48.728;9.256;2023-07-13T10:30:25;97233.78;;;31.64;27.07
12178;BME280;6152;48.728;9.256;2023-07-13T10:32:54;97233.81;;;32.66;26.36
12178;BME280;6152;48.728;9.256;2023-07-13T10:35:21;97226.81;;;33.18;25.75
12178;BME280;6152;48.728;9.256;2023-07-13T10:43:29;97233.88;;;35.25;23.19
12178;BME280;6152;48.728;9.256;2023-07-13T10:45:59;97232.09;;;34.18;23.39
12178;BME280;6152;48.728;9.256;2023-07-13T10:48:27;97233.19;;;33.82;24.88
12178;BME280;6152;48.728;9.256;2023-07-13T10:50:55;97235.56;;;32.61;26.39
12178;BME280;6152;48.728;9.256;2023-07-13T10:53:36;97236.50;;;32.36;25.28
12178;BME280;6152;48.728;9.256;2023-07-13T10:59:15;97229.72;;;33.05;25.51
12178;BME280;6152;48.728;9.256;2023-07-13T11:04:20;97220.53;;;33.71;24.88
12178;BME280;6152;48.728;9.256;2023-07-13T11:06:58;97223.56;;;33.39;24.57
12178;BME280;6152;48.728;9.256;2023-07-13T11:09:39;97221.06;;;32.73;26.05
12178;BME280;6152;48.728;9.256;2023-07-13T11:15:03;97221.84;;;33.03;25.05
12178;BME280;6152;48.728;9.256;2023-07-13T11:22:44;97206.03;;;35.46;22.63
12178;BME280;6152;48.728;9.256;2023-07-13T11:25:32;97216.31;;;36.21;21.65
12178;BME280;6152;48.728;9.256;2023-07-13T11:28:23;97205.06;;;36.34;21.06
12178;BME280;6152;48.728;9.256;2023-07-13T11:33:25;97206.06;;;37.72;19.77
12178;BME280;6152;48.728;9.256;2023-07-13T11:36:13;97207.63;;;37.58;20.24
12178;BME280;6152;48.728;9.256;2023-07-13T11:38:41;97210.34;;;36.68;20.25
12178;BME280;6152;48.728;9.256;2023-07-13T11:41:19;97197.53;;;36.15;20.97
12178;BME280;6152;48.728;9.256;2023-07-13T11:43:50;97194.38;;;34.51;22.02
12178;BME280;6152;48.728;9.256;2023-07-13T11:46:26;97196.38;;;34.72;22.39
12178;BME280;6152;48.728;9.256;2023-07-13T11:48:53;97193.41;;;32.78;24.67
12178;BME280;6152;48.728;9.256;2023-07-13T11:51:34;97206.94;;;32.30;25.41
12178;BME280;6152;48.728;9.256;2023-07-13T11:54:10;97202.53;;;31.63;26.46
12178;BME280;6152;48.728;9.256;2023-07-13T11:56:41;97199.97;;;30.31;27.54
12178;BME280;6152;48.728;9.256;2023-07-13T11:59:10;97196.59;;;29.97;28.25
12178;BME280;6152;48.728;9.256;2023-07-13T12:01:44;97197.94;;;30.26;28.21
12178;BME280;6152;48.728;9.256;2023-07-13T12:04:25;97205.09;;;29.94;28.81
12178;BME280;6152;48.728;9.256;2023-07-13T12:07:04;97206.50;;;30.54;29.06
12178;BME280;6152;48.728;9.256;2023-07-13T12:09:32;97198.31;;;29.85;28.36
12178;BME280;6152;48.728;9.256;2023-07-13T12:11:59;97200.47;;;30.15;27.91
12178;BME280;6152;48.728;9.256;2023-07-13T12:14:26;97207.09;;;30.88;27.63
12178;BME280;6152;48.728;9.256;2023-07-13T12:16:53;97205.81;;;31.83;27.23
12178;BME280;6152;48.728;9.256;2023-07-13T12:19:28;97205.28;;;31.31;26.72
12178;BME280;6152;48.728;9.256;2023-07-13T12:21:57;97208.13;;;30.55;27.81
12178;BME280;6152;48.728;9.256;2023-07-13T12:24:24;97211.00;;;29.26;29.80
12178;BME280;6152;48.728;9.256;2023-07-13T12:26:53;97207.63;;;28.65;30.45
12178;BME280;6152;48.728;9.256;2023-07-13T12:29:20;97205.25;;;27.75;31.63
12178;BME280;6152;48.728;9.256;2023-07-13T12:31:48;97202.97;;;27.72;31.99
12178;BME280;6152;48.728;9.256;2023-07-13T12:34:17;97205.00;;;27.14;33.95
12178;BME280;6152;48.728;9.256;2023-07-13T12:36:59;97204.03;;;27.22;32.86
12178;BME280;6152;48.728;9.256;2023-07-13T12:39:34;97198.31;;;27.25;32.78
12178;BME280;6152;48.728;9.256;2023-07-13T12:42:20;97200.88;;;27.39;32.89
12178;BME280;6152;48.728;9.256;2023-07-13T12:44:50;97199.31;;;27.51;32.73
12178;BME280;6152;48.728;9.256;2023-07-13T12:47:16;97197.41;;;27.73;32.58
12178;BME280;6152;48.728;9.256;2023-07-13T12:49:53;97193.13;;;27.79;33.20
12178;BME280;6152;48.728;9.256;2023-07-13T12:52:31;97195.84;;;27.92;32.33
12178;BME280;6152;48.728;9.256;2023-07-13T12:55:12;97190.63;;;27.77;32.62
12178;BME280;6152;48.728;9.256;2023-07-13T13:00:28;97201.84;;;27.59;32.25
12178;BME280;6152;48.728;9.256;2023-07-13T13:02:56;97195.38;;;27.75;32.54
12178;BME280;6152;48.728;9.256;2023-07-13T13:05:26;97197.41;;;27.73;32.84
12178;BME280;6152;48.728;9.256;2023-07-13T13:07:52;97198.88;;;27.48;32.89
12178;BME280;6152;48.728;9.256;2023-07-13T13:10:18;97195.09;;;27.36;32.97
12178;BME280;6152;48.728;9.256;2023-07-13T13:12:47;97189.31;;;27.32;33.06
12178;BME280;6152;48.728;9.256;2023-07-13T13:15:13;97190.03;;;27.13;32.73
12178;BME280;6152;48.728;9.256;2023-07-13T13:17:40;97188.50;;;27.04;32.63
12178;BME280;6152;48.728;9.256;2023-07-13T13:20:32;97186.72;;;26.69;33.73
12178;BME280;6152;48.728;9.256;2023-07-13T13:22:58;97187.94;;;26.66;33.88
12178;BME280;6152;48.728;9.256;2023-07-13T13:25:25;97184.59;;;26.57;33.22
12178;BME280;6152;48.728;9.256;2023-07-13T13:27:51;97181.25;;;26.55;32.93
12178;BME280;6152;48.728;9.256;2023-07-13T13:30:18;97176.13;;;26.75;33.76
12178;BME280;6152;48.728;9.256;2023-07-13T13:32:47;97176.44;;;26.66;33.60
12178;BME280;6152;48.728;9.256;2023-07-13T13:35:18;97174.50;;;26.81;33.32
12178;BME280;6152;48.728;9.256;2023-07-13T13:37:46;97178.09;;;26.88;32.95
12178;BME280;6152;48.728;9.256;2023-07-13T13:40:21;97174.41;;;26.68;32.73
12178;BME280;6152;48.728;9.256;2023-07-13T13:42:50;97170.88;;;26.82;32.89
12178;BME280;6152;48.728;9.256;2023-07-13T13:45:18;97167.91;;;26.77;34.12
12178;BME280;6152;48.728;9.256;2023-07-13T13:47:44;97177.63;;;27.05;33.63
12178;BME280;6152;48.728;9.256;2023-07-13T13:50:16;97178.66;;;27.39;32.44
12178;BME280;6152;48.728;9.256;2023-07-13T13:52:43;97173.09;;;27.34;32.66
12178;BME280;6152;48.728;9.256;2023-07-13T13:55:17;97169.22;;;27.43;33.21
12178;BME280;6152;48.728;9.256;2023-07-13T13:57:45;97175.44;;;26.88;32.58
12178;BME280;6152;48.728;9.256;2023-07-13T14:00:13;97179.59;;;26.76;33.62